sensor_id;sensor_type;location;lat;lon;timestamp;pressure;altitude;pressure_sealevel;temperature;humidity
51287;BME280;37364;46.974;18.916;2023-07-13T00:02:25;156173.63;;;23.04;100.00
51287;BME280;37364;46.974;18.916;2023-07-13T00:04:56;156169.69;;;23.03;100.00
51287;BME280;37364;46.974;18.916;2023-07-13T00:07:26;156169.69;;;23.03;100.00
51287;BME280;37364;46.974;18.916;2023-07-13T00:09:58;156140.97;;;22.92;100.00
51287;BME280;37364;46.974;18.916;2023-07-13T00:12:31;156139.63;;;22.91;100.00
51287;BME280;37364;46.974;18.916;2023-07-13T00:15:05;156107.03;;;22.78;100.00
51287;BME280;37364;46.974;18.916;2023-07-13T00:17:40;156092.66;;;22.73;100.00
51287;BME280;37364;46.974;18.916;2023-07-13T00:20:11;156066.56;;;22.62;100.00
51287;BME280;37364;46.974;18.916;2023-07-13T00:22:42;156028.72;;;22.47;100.00
51287;BME280;37364;46.974;18.916;2023-07-13T00:25:12;156026.13;;;22.46;100.00
51287;BME280;37364;46.974;18.916;2023-07-13T00:27:44;156026.13;;;22.46;100.00
51287;BME280;37364;46.974;18.916;2023-07-13T00:30:16;155989.56;;;22.32;100.00
51287;BME280;37364;46.974;18.916;2023-07-13T00:32:49;155977.84;;;22.27;100.00
51287;BME280;37364;46.974;18.916;2023-07-13T00:35:34;155994.78;;;22.34;100.00
51287;BME280;37364;46.974;18.916;2023-07-13T00:38:06;155977.84;;;22.27;100.00
51287;BME280;37364;46.974;18.916;2023-07-13T00:40:36;155976.56;;;22.27;100.00
51287;BME280;37364;46.974;18.916;2023-07-13T00:43:10;155933.44;;;22.10;100.00
51287;BME280;37364;46.974;18.916;2023-07-13T00:46:09;155953.00;;;22.18;100.00
51287;BME280;37364;46.974;18.916;2023-07-13T00:48:45;155968.66;;;22.24;100.00
51287;BME280;37364;46.974;18.916;2023-07-13T00:51:20;155967.38;;;22.23;100.00
51287;BME280;37364;46.974;18.916;2023-07-13T00:53:53;155970.00;;;22.24;100.00
51287;BME280;37364;46.974;18.916;2023-07-13T00:56:24;155960.81;;;22.21;100.00
51287;BME280;37364;46.974;18.916;2023-07-13T00:58:56;155955.59;;;22.19;100.00
51287;BME280;37364;46.974;18.916;2023-07-13T01:01:27;155945.16;;;22.15;100.00
51287;BME280;37364;46.974;18.916;2023-07-13T01:04:00;155955.59;;;22.19;100.00
51287;BME280;37364;46.974;18.916;2023-07-13T01:06:30;155949.09;;;22.16;100.00
51287;BME280;37364;46.974;18.916;2023-07-13T01:09:01;155936.06;;;22.11;100.00
51287;BME280;37364;46.974;18.916;2023-07-13T01:11:31;155930.81;;;22.09;100.00
51287;BME280;37364;46.974;18.916;2023-07-13T01:14:02;155925.59;;;22.07;100.00
51287;BME280;37364;46.974;18.916;2023-07-13T01:16:34;155929.50;;;22.08;100.00
51287;BME280;37364;46.974;18.916;2023-07-13T01:19:14;155916.50;;;22.03;100.00
51287;BME280;37364;46.974;18.916;2023-07-13T01:21:53;155902.16;;;21.98;100.00
51287;BME280;37364;46.974;18.916;2023-07-13T01:24:23;155893.00;;;21.94;100.00
51287;BME280;37364;46.974;18.916;2023-07-13T01:26:53;155896.94;;;21.96;100.00
51287;BME280;37364;46.974;18.916;2023-07-13T01:29:23;155878.66;;;21.88;100.00
51287;BME280;37364;46.974;18.916;2023-07-13T01:31:53;155886.50;;;21.91;100.00
51287;BME280;37364;46.974;18.916;2023-07-13T01:34:25;155893.00;;;21.94;100.00
51287;BME280;37364;46.974;18.916;2023-07-13T01:36:58;155879.94;;;21.89;100.00
51287;BME280;37364;46.974;18.916;2023-07-13T01:39:28;155873.44;;;21.86;100.00
51287;BME280;37364;46.974;18.916;2023-07-13T01:41:58;155866.94;;;21.84;100.00
51287;BME280;37364;46.974;18.916;2023-07-13T01:44:28;155863.00;;;21.82;100.00
51287;BME280;37364;46.974;18.916;2023-07-13T01:46:59;155856.50;;;21.80;100.00
51287;BME280;37364;46.974;18.916;2023-07-13T01:49:29;155847.38;;;21.76;100.00
51287;BME280;37364;46.974;18.916;2023-07-13T01:52:02;155857.81;;;21.80;100.00
51287;BME280;37364;46.974;18.916;2023-07-13T01:54:32;155872.16;;;21.86;100.00
51287;BME280;37364;46.974;18.916;2023-07-13T01:57:03;155866.94;;;21.84;100.00
51287;BME280;37364;46.974;18.916;2023-07-13T01:59:33;155865.59;;;21.83;100.00
51287;BME280;37364;46.974;18.916;2023-07-13T02:02:05;155860.38;;;21.81;100.00
51287;BME280;37364;46.974;18.916;2023-07-13T02:04:36;155860.38;;;21.81;100.00
51287;BME280;37364;46.974;18.916;2023-07-13T02:07:09;155859.09;;;21.81;100.00
51287;BME280;37364;46.974;18.916;2023-07-13T02:09:39;155844.72;;;21.75;100.00
51287;BME280;37364;46.974;18.916;2023-07-13T02:12:09;155852.59;;;21.78;100.00
51287;BME280;37364;46.974;18.916;2023-07-13T02:14:40;155866.94;;;21.84;100.00
51287;BME280;37364;46.974;18.916;2023-07-13T02:17:10;155876.03;;;21.87;100.00
51287;BME280;37364;46.974;18.916;2023-07-13T02:19:40;155883.88;;;21.90;100.00
51287;BME280;37364;46.974;18.916;2023-07-13T02:22:13;155879.94;;;21.89;100.00
51287;BME280;37364;46.974;18.916;2023-07-13T02:24:43;155879.94;;;21.89;100.00
51287;BME280;37364;46.974;18.916;2023-07-13T02:27:16;155882.56;;;21.90;100.00
51287;BME280;37364;46.974;18.916;2023-07-13T02:29:46;155882.56;;;21.90;100.00
51287;BME280;37364;46.974;18.916;2023-07-13T02:32:20;155868.22;;;21.84;100.00
51287;BME280;37364;46.974;18.916;2023-07-13T02:34:52;155874.72;;;21.87;100.00
51287;BME280;37364;46.974;18.916;2023-07-13T02:37:25;155870.81;;;21.85;100.00
51287;BME280;37364;46.974;18.916;2023-07-13T02:39:55;155861.72;;;21.82;100.00
51287;BME280;37364;46.974;18.916;2023-07-13T02:42:25;155859.09;;;21.81;100.00
51287;BME280;37364;46.974;18.916;2023-07-13T02:44:56;155856.50;;;21.80;100.00
51287;BME280;37364;46.974;18.916;2023-07-13T02:47:26;155853.88;;;21.79;100.00
51287;BME280;37364;46.974;18.916;2023-07-13T02:49:56;155846.03;;;21.76;100.00
51287;BME280;37364;46.974;18.916;2023-07-13T02:52:29;155840.81;;;21.73;100.00
51287;BME280;37364;46.974;18.916;2023-07-13T02:54:59;155842.16;;;21.74;100.00
51287;BME280;37364;46.974;18.916;2023-07-13T02:57:30;155838.22;;;21.72;100.00
51287;BME280;37364;46.974;18.916;2023-07-13T03:00:03;155839.53;;;21.73;100.00
51287;BME280;37364;46.974;18.916;2023-07-13T03:02:35;155849.94;;;21.77;100.00
51287;BME280;37364;46.974;18.916;2023-07-13T03:05:05;155859.09;;;21.81;100.00
51287;BME280;37364;46.974;18.916;2023-07-13T03:07:40;155856.50;;;21.80;100.00
51287;BME280;37364;46.974;18.916;2023-07-13T03:10:11;155855.16;;;21.79;100.00
51287;BME280;37364;46.974;18.916;2023-07-13T03:12:46;155869.53;;;21.85;100.00
51287;BME280;37364;46.974;18.916;2023-07-13T03:15:23;155874.72;;;21.87;100.00
51287;BME280;37364;46.974;18.916;2023-07-13T03:17:58;155879.94;;;21.89;100.00
51287;BME280;37364;46.974;18.916;2023-07-13T03:20:28;155890.38;;;21.93;100.00
51287;BME280;37364;46.974;18.916;2023-07-13T03:23:01;155903.44;;;21.98;100.00
51287;BME280;37364;46.974;18.916;2023-07-13T03:25:31;155908.66;;;22.00;100.00
51287;BME280;37364;46.974;18.916;2023-07-13T03:28:02;155917.78;;;22.04;100.00
51287;BME280;37364;46.974;18.916;2023-07-13T03:30:33;155929.50;;;22.08;100.00
51287;BME280;37364;46.974;18.916;2023-07-13T03:33:04;155958.22;;;22.20;100.00
51287;BME280;37364;46.974;18.916;2023-07-13T03:35:35;155968.66;;;22.24;100.00
51287;BME280;37364;46.974;18.916;2023-07-13T03:38:07;155977.84;;;22.27;100.00
51287;BME280;37364;46.974;18.916;2023-07-13T03:40:39;155988.28;;;22.31;100.00
51287;BME280;37364;46.974;18.916;2023-07-13T03:43:10;156005.22;;;22.38;100.00
51287;BME280;37364;46.974;18.916;2023-07-13T03:45:40;156007.84;;;22.39;100.00
51287;BME280;37364;46.974;18.916;2023-07-13T03:48:11;156009.16;;;22.40;100.00
51287;BME280;37364;46.974;18.916;2023-07-13T03:50:41;156028.72;;;22.47;100.00
51287;BME280;37364;46.974;18.916;2023-07-13T03:53:14;156023.50;;;22.45;100.00
51287;BME280;37364;46.974;18.916;2023-07-13T03:55:46;156036.56;;;22.50;100.00
51287;BME280;37364;46.974;18.916;2023-07-13T03:58:31;156045.66;;;22.54;100.00
51287;BME280;37364;46.974;18.916;2023-07-13T04:01:10;156037.84;;;22.51;100.00
51287;BME280;37364;46.974;18.916;2023-07-13T04:03:40;156035.22;;;22.50;100.00
51287;BME280;37364;46.974;18.916;2023-07-13T04:06:15;156035.22;;;22.50;100.00
51287;BME280;37364;46.974;18.916;2023-07-13T04:08:52;156032.66;;;22.49;100.00
51287;BME280;37364;46.974;18.916;2023-07-13T04:11:24;156009.16;;;22.40;100.00
51287;BME280;37364;46.974;18.916;2023-07-13T04:13:55;156010.44;;;22.40;100.00
51287;BME280;37364;46.974;18.916;2023-07-13T04:16:26;156006.56;;;22.39;100.00
51287;BME280;37364;46.974;18.916;2023-07-13T04:18:56;155979.13;;;22.28;100.00
51287;BME280;37364;46.974;18.916;2023-07-13T04:21:28;155963.44;;;22.22;100.00
51287;BME280;37364;46.974;18.916;2023-07-13T04:24:01;155955.59;;;22.19;100.00
51287;BME280;37364;46.974;18.916;2023-07-13T04:26:32;155949.09;;;22.16;100.00
51287;BME280;37364;46.974;18.916;2023-07-13T04:29:03;155955.59;;;22.19;100.00
51287;BME280;37364;46.974;18.916;2023-07-13T04:31:33;155933.44;;;22.10;100.00
51287;BME280;37364;46.974;18.916;2023-07-13T04:34:04;155909.94;;;22.01;100.00
51287;BME280;37364;46.974;18.916;2023-07-13T04:36:34;155902.16;;;21.98;100.00
51287;BME280;37364;46.974;18.916;2023-07-13T04:39:07;155866.94;;;21.84;100.00
51287;BME280;37364;46.974;18.916;2023-07-13T04:41:38;155851.25;;;21.78;100.00
51287;BME280;37364;46.974;18.916;2023-07-13T04:44:08;155823.88;;;21.67;100.00
51287;BME280;37364;46.974;18.916;2023-07-13T04:46:38;155799.09;;;21.57;100.00
51287;BME280;37364;46.974;18.916;2023-07-13T04:49:08;155754.72;;;21.40;100.00
51287;BME280;37364;46.974;18.916;2023-07-13T04:51:38;155677.81;;;21.09;100.00
51287;BME280;37364;46.974;18.916;2023-07-13T04:54:11;155517.41;;;20.46;100.00
51287;BME280;37364;46.974;18.916;2023-07-13T04:56:41;155177.38;;;19.12;100.00
51287;BME280;37364;46.974;18.916;2023-07-13T04:59:11;155051.06;;;18.63;100.00
51287;BME280;37364;46.974;18.916;2023-07-13T05:01:41;155009.38;;;18.46;100.00
51287;BME280;37364;46.974;18.916;2023-07-13T05:04:12;154998.97;;;18.42;100.00
51287;BME280;37364;46.974;18.916;2023-07-13T05:06:42;154993.75;;;18.40;100.00
51287;BME280;37364;46.974;18.916;2023-07-13T05:09:15;154995.09;;;18.41;100.00
51287;BME280;37364;46.974;18.916;2023-07-13T05:11:45;155006.81;;;18.45;100.00
51287;BME280;37364;46.974;18.916;2023-07-13T05:14:15;155014.59;;;18.48;100.00
51287;BME280;37364;46.974;18.916;2023-07-13T05:16:45;155021.13;;;18.51;100.00
51287;BME280;37364;46.974;18.916;2023-07-13T05:19:15;155030.25;;;18.54;100.00
51287;BME280;37364;46.974;18.916;2023-07-13T05:21:45;155022.41;;;18.51;100.00
51287;BME280;37364;46.974;18.916;2023-07-13T05:24:18;155019.84;;;18.50;100.00
51287;BME280;37364;46.974;18.916;2023-07-13T05:26:51;155017.22;;;18.49;100.00
51287;BME280;37364;46.974;18.916;2023-07-13T05:29:22;155019.84;;;18.50;100.00
51287;BME280;37364;46.974;18.916;2023-07-13T05:31:52;155047.16;;;18.61;100.00
51287;BME280;37364;46.974;18.916;2023-07-13T05:34:22;155048.44;;;18.62;100.00
51287;BME280;37364;46.974;18.916;2023-07-13T05:36:53;155031.53;;;18.55;100.00
51287;BME280;37364;46.974;18.916;2023-07-13T05:39:26;155036.72;;;18.57;100.00
51287;BME280;37364;46.974;18.916;2023-07-13T05:41:56;155019.84;;;18.50;100.00
51287;BME280;37364;46.974;18.916;2023-07-13T05:44:26;155039.31;;;18.58;100.00
51287;BME280;37364;46.974;18.916;2023-07-13T05:46:59;155052.34;;;18.63;100.00
51287;BME280;37364;46.974;18.916;2023-07-13T05:49:29;155045.84;;;18.61;100.00
51287;BME280;37364;46.974;18.916;2023-07-13T05:51:59;155044.50;;;18.60;100.00
51287;BME280;37364;46.974;18.916;2023-07-13T05:54:32;155014.59;;;18.48;100.00
51287;BME280;37364;46.974;18.916;2023-07-13T05:57:05;155023.69;;;18.52;100.00
51287;BME280;37364;46.974;18.916;2023-07-13T05:59:35;155040.66;;;18.58;100.00
51287;BME280;37364;46.974;18.916;2023-07-13T06:02:07;155054.97;;;18.64;100.00
51287;BME280;37364;46.974;18.916;2023-07-13T06:04:38;155070.59;;;18.70;100.00
51287;BME280;37364;46.974;18.916;2023-07-13T06:07:08;155060.19;;;18.66;100.00
51287;BME280;37364;46.974;18.916;2023-07-13T06:09:41;155077.09;;;18.73;100.00
51287;BME280;37364;46.974;18.916;2023-07-13T06:12:11;155075.78;;;18.72;100.00
51287;BME280;37364;46.974;18.916;2023-07-13T06:14:41;155071.88;;;18.71;100.00
51287;BME280;37364;46.974;18.916;2023-07-13T06:17:11;155070.59;;;18.70;100.00
51287;BME280;37364;46.974;18.916;2023-07-13T06:19:41;155062.75;;;18.67;100.00
51287;BME280;37364;46.974;18.916;2023-07-13T06:22:11;155092.69;;;18.79;100.00
51287;BME280;37364;46.974;18.916;2023-07-13T06:24:44;155121.41;;;18.90;100.00
51287;BME280;37364;46.974;18.916;2023-07-13T06:27:14;155150.06;;;19.02;100.00
51287;BME280;37364;46.974;18.916;2023-07-13T06:29:44;155187.78;;;19.16;100.00
51287;BME280;37364;46.974;18.916;2023-07-13T06:32:14;155194.34;;;19.19;100.00
51287;BME280;37364;46.974;18.916;2023-07-13T06:34:45;155237.28;;;19.36;100.00
51287;BME280;37364;46.974;18.916;2023-07-13T06:37:15;155260.72;;;19.45;100.00
51287;BME280;37364;46.974;18.916;2023-07-13T06:39:48;155335.03;;;19.74;100.00
51287;BME280;37364;46.974;18.916;2023-07-13T06:42:18;155383.25;;;19.93;100.00
51287;BME280;37364;46.974;18.916;2023-07-13T06:44:48;155434.03;;;20.13;100.00
51287;BME280;37364;46.974;18.916;2023-07-13T06:47:18;155466.59;;;20.26;100.00
51287;BME280;37364;46.974;18.916;2023-07-13T06:49:48;155520.03;;;20.47;100.00
51287;BME280;37364;46.974;18.916;2023-07-13T06:52:18;155540.88;;;20.55;100.00
51287;BME280;37364;46.974;18.916;2023-07-13T06:54:51;155563.09;;;20.64;100.00
51287;BME280;37364;46.974;18.916;2023-07-13T06:57:21;155649.13;;;20.98;100.00
51287;BME280;37364;46.974;18.916;2023-07-13T06:59:52;155788.66;;;21.53;100.00
51287;BME280;37364;46.974;18.916;2023-07-13T07:02:22;155759.91;;;21.42;100.00
51287;BME280;37364;46.974;18.916;2023-07-13T07:04:52;155795.19;;;21.56;100.00
51287;BME280;37364;46.974;18.916;2023-07-13T07:07:24;155912.56;;;22.02;100.00
51287;BME280;37364;46.974;18.916;2023-07-13T07:09:57;155937.38;;;22.11;100.00
51287;BME280;37364;46.974;18.916;2023-07-13T07:12:27;156092.66;;;22.73;100.00
51287;BME280;37364;46.974;18.916;2023-07-13T07:14:57;155960.81;;;22.21;100.00
51287;BME280;37364;46.974;18.916;2023-07-13T07:17:27;156040.44;;;22.52;100.00
51287;BME280;37364;46.974;18.916;2023-07-13T07:19:57;156043.06;;;22.53;100.00
51287;BME280;37364;46.974;18.916;2023-07-13T07:22:28;156053.50;;;22.57;100.00
51287;BME280;37364;46.974;18.916;2023-07-13T07:25:00;156177.53;;;23.06;100.00
51287;BME280;37364;46.974;18.916;2023-07-13T07:27:30;156216.72;;;23.21;100.00
51287;BME280;37364;46.974;18.916;2023-07-13T07:30:05;156151.41;;;22.96;100.00
51287;BME280;37364;46.974;18.916;2023-07-13T07:32:38;156244.09;;;23.32;100.00
51287;BME280;37364;46.974;18.916;2023-07-13T07:35:23;156178.84;;;23.06;100.00
51287;BME280;37364;46.974;18.916;2023-07-13T07:37:56;156151.41;;;22.96;100.00
51287;BME280;37364;46.974;18.916;2023-07-13T07:40:29;156177.53;;;23.06;100.00
51287;BME280;37364;46.974;18.916;2023-07-13T07:43:03;156112.25;;;22.80;100.00
51287;BME280;37364;46.974;18.916;2023-07-13T07:45:33;156080.94;;;22.68;100.00
51287;BME280;37364;46.974;18.916;2023-07-13T07:48:05;156112.25;;;22.80;100.00
51287;BME280;37364;46.974;18.916;2023-07-13T07:50:36;156242.78;;;23.32;100.00
51287;BME280;37364;46.974;18.916;2023-07-13T07:53:07;156168.41;;;23.02;100.00
51287;BME280;37364;46.974;18.916;2023-07-13T07:55:40;156208.84;;;23.18;100.00
51287;BME280;37364;46.974;18.916;2023-07-13T07:58:13;156171.03;;;23.03;100.00
51287;BME280;37364;46.974;18.916;2023-07-13T08:01:03;156160.53;;;22.99;100.00
51287;BME280;37364;46.974;18.916;2023-07-13T08:03:37;156137.03;;;22.90;100.00
51287;BME280;37364;46.974;18.916;2023-07-13T08:06:10;156176.25;;;23.05;100.00
51287;BME280;37364;46.974;18.916;2023-07-13T08:09:00;156315.91;;;23.60;100.00
51287;BME280;37364;46.974;18.916;2023-07-13T08:11:34;156407.34;;;23.96;100.00
51287;BME280;37364;46.974;18.916;2023-07-13T08:14:07;156445.25;;;24.11;100.00
51287;BME280;37364;46.974;18.916;2023-07-13T08:16:37;156453.06;;;24.14;100.00
51287;BME280;37364;46.974;18.916;2023-07-13T08:19:07;156340.72;;;23.70;100.00
51287;BME280;37364;46.974;18.916;2023-07-13T08:21:38;156328.94;;;23.65;100.00
51287;BME280;37364;46.974;18.916;2023-07-13T08:24:11;156220.63;;;23.23;100.00
51287;BME280;37364;46.974;18.916;2023-07-13T08:26:44;156207.56;;;23.18;100.00
51287;BME280;37364;46.974;18.916;2023-07-13T08:29:15;156174.91;;;23.05;100.00
51287;BME280;37364;46.974;18.916;2023-07-13T08:31:45;156240.16;;;23.30;100.00
51287;BME280;37364;46.974;18.916;2023-07-13T08:34:16;156394.28;;;23.91;100.00
51287;BME280;37364;46.974;18.916;2023-07-13T08:36:46;156530.16;;;24.44;100.00
51287;BME280;37364;46.974;18.916;2023-07-13T08:39:16;156497.47;;;24.32;100.00
51287;BME280;37364;46.974;18.916;2023-07-13T08:41:54;156558.88;;;24.56;100.00
51287;BME280;37364;46.974;18.916;2023-07-13T08:44:33;156629.44;;;24.83;100.00
51287;BME280;37364;46.974;18.916;2023-07-13T08:47:08;156441.31;;;24.10;100.00
51287;BME280;37364;46.974;18.916;2023-07-13T08:49:40;156569.34;;;24.60;100.00
51287;BME280;37364;46.974;18.916;2023-07-13T08:52:16;156484.38;;;24.26;100.00
51287;BME280;37364;46.974;18.916;2023-07-13T08:54:49;156562.81;;;24.57;100.00
51287;BME280;37364;46.974;18.916;2023-07-13T08:57:29;156562.81;;;24.57;100.00
51287;BME280;37364;46.974;18.916;2023-07-13T09:00:01;156666.03;;;24.98;100.00
51287;BME280;37364;46.974;18.916;2023-07-13T09:02:41;156703.91;;;25.13;100.00
51287;BME280;37364;46.974;18.916;2023-07-13T09:05:14;156639.94;;;24.88;100.00
51287;BME280;37364;46.974;18.916;2023-07-13T09:08:01;156660.81;;;24.96;100.00
51287;BME280;37364;46.974;18.916;2023-07-13T09:10:41;156786.31;;;25.45;100.00
51287;BME280;37364;46.974;18.916;2023-07-13T09:13:24;156850.38;;;25.70;100.00
51287;BME280;37364;46.974;18.916;2023-07-13T09:15:58;156847.72;;;25.69;100.00
51287;BME280;37364;46.974;18.916;2023-07-13T09:18:32;156808.50;;;25.54;100.00
51287;BME280;37364;46.974;18.916;2023-07-13T09:21:08;156638.59;;;24.87;100.00
51287;BME280;37364;46.974;18.916;2023-07-13T09:23:40;156730.13;;;25.23;100.00
51287;BME280;37364;46.974;18.916;2023-07-13T09:26:13;156842.50;;;25.67;100.00
51287;BME280;37364;46.974;18.916;2023-07-13T09:28:50;156964.13;;;26.15;100.00
51287;BME280;37364;46.974;18.916;2023-07-13T09:31:26;156782.38;;;25.43;100.00
51287;BME280;37364;46.974;18.916;2023-07-13T09:33:58;156842.50;;;25.67;100.00
51287;BME280;37364;46.974;18.916;2023-07-13T09:36:31;156774.56;;;25.40;100.00
51287;BME280;37364;46.974;18.916;2023-07-13T09:39:12;156975.91;;;26.19;100.00
51287;BME280;37364;46.974;18.916;2023-07-13T09:41:48;157013.81;;;26.34;100.00
51287;BME280;37364;46.974;18.916;2023-07-13T09:44:31;156910.56;;;25.94;100.00
51287;BME280;37364;46.974;18.916;2023-07-13T09:47:13;157016.44;;;26.35;100.00
51287;BME280;37364;46.974;18.916;2023-07-13T09:49:45;156968.03;;;26.16;100.00
51287;BME280;37364;46.974;18.916;2023-07-13T09:52:16;157136.78;;;26.82;100.00
51287;BME280;37364;46.974;18.916;2023-07-13T09:54:48;157156.41;;;26.90;100.00
51287;BME280;37364;46.974;18.916;2023-07-13T09:57:22;157207.41;;;27.10;100.00
51287;BME280;37364;46.974;18.916;2023-07-13T10:00:21;157156.41;;;26.90;100.00
51287;BME280;37364;46.974;18.916;2023-07-13T10:03:03;157216.59;;;27.14;100.00
51287;BME280;37364;46.974;18.916;2023-07-13T10:05:41;157067.44;;;26.55;100.00
51287;BME280;37364;46.974;18.916;2023-07-13T10:08:22;157186.50;;;27.02;100.00
51287;BME280;37364;46.974;18.916;2023-07-13T10:10:59;157274.22;;;27.36;100.00
51287;BME280;37364;46.974;18.916;2023-07-13T10:13:33;157092.31;;;26.65;100.00
51287;BME280;37364;46.974;18.916;2023-07-13T10:16:09;157198.25;;;27.07;100.00
51287;BME280;37364;46.974;18.916;2023-07-13T10:18:43;157164.28;;;26.93;100.00
51287;BME280;37364;46.974;18.916;2023-07-13T10:21:16;157169.53;;;26.95;100.00
51287;BME280;37364;46.974;18.916;2023-07-13T10:24:09;157142.03;;;26.85;100.00
51287;BME280;37364;46.974;18.916;2023-07-13T10:26:46;157195.66;;;27.06;100.00
51287;BME280;37364;46.974;18.916;2023-07-13T10:29:18;157176.03;;;26.98;100.00
51287;BME280;37364;46.974;18.916;2023-07-13T10:31:52;157056.97;;;26.51;100.00
51287;BME280;37364;46.974;18.916;2023-07-13T10:34:25;157051.75;;;26.49;100.00
51287;BME280;37364;46.974;18.916;2023-07-13T10:36:55;157238.81;;;27.22;100.00
51287;BME280;37364;46.974;18.916;2023-07-13T10:39:27;157386.72;;;27.80;100.00
51287;BME280;37364;46.974;18.916;2023-07-13T10:42:00;157233.56;;;27.20;100.00
51287;BME280;37364;46.974;18.916;2023-07-13T10:44:33;157461.38;;;28.10;100.00
51287;BME280;37364;46.974;18.916;2023-07-13T10:47:08;157343.53;;;27.64;100.00
51287;BME280;37364;46.974;18.916;2023-07-13T10:49:42;157338.28;;;27.61;100.00
51287;BME280;37364;46.974;18.916;2023-07-13T10:55:34;157261.13;;;27.31;100.00
51287;BME280;37364;46.974;18.916;2023-07-13T10:58:19;157500.66;;;28.25;100.00
51287;BME280;37364;46.974;18.916;2023-07-13T11:00:53;157554.31;;;28.46;100.00
51287;BME280;37364;46.974;18.916;2023-07-13T11:03:31;157367.09;;;27.73;100.00
51287;BME280;37364;46.974;18.916;2023-07-13T11:06:09;157350.09;;;27.66;100.00
51287;BME280;37364;46.974;18.916;2023-07-13T11:08:51;157492.78;;;28.22;100.00
51287;BME280;37364;46.974;18.916;2023-07-13T11:11:33;157608.03;;;28.67;100.00
51287;BME280;37364;46.974;18.916;2023-07-13T11:14:26;157509.81;;;28.29;100.00
51287;BME280;37364;46.974;18.916;2023-07-13T11:16:57;157581.84;;;28.57;100.00
51287;BME280;37364;46.974;18.916;2023-07-13T11:19:51;157699.69;;;29.03;100.00
51287;BME280;37364;46.974;18.916;2023-07-13T11:22:23;157761.28;;;29.27;100.00
51287;BME280;37364;46.974;18.916;2023-07-13T11:25:00;157482.31;;;28.18;100.00
51287;BME280;37364;46.974;18.916;2023-07-13T11:27:40;157521.56;;;28.33;100.00
51287;BME280;37364;46.974;18.916;2023-07-13T11:30:33;157585.78;;;28.58;100.00
51287;BME280;37364;46.974;18.916;2023-07-13T11:33:25;157563.44;;;28.50;100.00
51287;BME280;37364;46.974;18.916;2023-07-13T11:36:04;157614.59;;;28.70;100.00
51287;BME280;37364;46.974;18.916;2023-07-13T11:38:37;157701.00;;;29.04;100.00
51287;BME280;37364;46.974;18.916;2023-07-13T11:41:15;157581.84;;;28.57;100.00
51287;BME280;37364;46.974;18.916;2023-07-13T11:43:49;157625.06;;;28.74;100.00
51287;BME280;37364;46.974;18.916;2023-07-13T11:46:22;157778.28;;;29.34;100.00
51287;BME280;37364;46.974;18.916;2023-07-13T11:48:53;157718.00;;;29.10;100.00
51287;BME280;37364;46.974;18.916;2023-07-13T11:51:29;157757.34;;;29.26;100.00
51287;BME280;37364;46.974;18.916;2023-07-13T11:54:03;157860.81;;;29.66;100.00
51287;BME280;37364;46.974;18.916;2023-07-13T11:56:36;157851.66;;;29.63;93.53
51287;BME280;37364;46.974;18.916;2023-07-13T11:59:07;157664.34;;;28.89;96.43
51287;BME280;37364;46.974;18.916;2023-07-13T12:01:43;157710.16;;;29.07;98.70
51287;BME280;37364;46.974;18.916;2023-07-13T12:04:21;157651.25;;;28.84;100.00
51287;BME280;37364;46.974;18.916;2023-07-13T12:07:07;157513.72;;;28.30;96.20
51287;BME280;37364;46.974;18.916;2023-07-13T12:09:37;157585.78;;;28.58;96.82
51287;BME280;37364;46.974;18.916;2023-07-13T12:12:11;157625.06;;;28.74;97.85
51287;BME280;37364;46.974;18.916;2023-07-13T12:14:42;157609.38;;;28.68;95.18
51287;BME280;37364;46.974;18.916;2023-07-13T12:17:18;157664.34;;;28.89;100.00
51287;BME280;37364;46.974;18.916;2023-07-13T12:19:50;157669.59;;;28.91;97.92
51287;BME280;37364;46.974;18.916;2023-07-13T12:22:23;157661.72;;;28.88;100.00
51287;BME280;37364;46.974;18.916;2023-07-13T12:24:53;157581.84;;;28.57;98.02
51287;BME280;37364;46.974;18.916;2023-07-13T12:27:25;157682.66;;;28.96;99.76
51287;BME280;37364;46.974;18.916;2023-07-13T12:29:59;157686.59;;;28.98;92.67
51287;BME280;37364;46.974;18.916;2023-07-13T12:32:29;157702.28;;;29.04;100.00
51287;BME280;37364;46.974;18.916;2023-07-13T12:35:14;157841.19;;;29.58;94.86
51287;BME280;37364;46.974;18.916;2023-07-13T12:37:51;157917.19;;;29.88;98.76
51287;BME280;37364;46.974;18.916;2023-07-13T12:40:26;157615.88;;;28.70;97.07
51287;BME280;37364;46.974;18.916;2023-07-13T12:43:02;157725.94;;;29.13;100.00
51287;BME280;37364;46.974;18.916;2023-07-13T12:45:33;157760.00;;;29.27;98.62
51287;BME280;37364;46.974;18.916;2023-07-13T12:48:16;157605.41;;;28.66;96.46
51287;BME280;37364;46.974;18.916;2023-07-13T12:51:02;157581.84;;;28.57;98.26
51287;BME280;37364;46.974;18.916;2023-07-13T12:53:40;157551.69;;;28.45;96.77
51287;BME280;37364;46.974;18.916;2023-07-13T12:56:18;157543.81;;;28.42;96.50
51287;BME280;37364;46.974;18.916;2023-07-13T12:58:56;157643.38;;;28.81;93.90
51287;BME280;37364;46.974;18.916;2023-07-13T13:01:29;157672.19;;;28.92;91.43
51287;BME280;37364;46.974;18.916;2023-07-13T13:04:01;157711.47;;;29.08;96.57
51287;BME280;37364;46.974;18.916;2023-07-13T13:06:36;157745.56;;;29.21;92.23